createdAt,value
2022-08-10T00:00:02.228Z,20.95
2022-08-10T00:02:58.128Z,20.92
2022-08-10T00:05:52.816Z,20.74
2022-08-10T00:08:41.709Z,20.75
2022-08-10T00:11:29.523Z,20.56
2022-08-10T00:14:18.001Z,20.50
2022-08-10T00:17:05.812Z,20.41
2022-08-10T00:20:02.477Z,20.41
2022-08-10T00:22:57.883Z,20.28
2022-08-10T00:25:46.175Z,20.27
2022-08-10T00:28:34.322Z,20.27
2022-08-10T00:31:22.108Z,20.15
2022-08-10T00:34:10.357Z,20.08
2022-08-10T00:36:59.246Z,19.96
2022-08-10T00:39:47.804Z,19.97
2022-08-10T00:42:35.872Z,19.84
2022-08-10T00:45:23.949Z,19.82
2022-08-10T00:48:11.766Z,19.86
2022-08-10T00:51:00.262Z,19.92
2022-08-10T00:53:48.419Z,19.89
2022-08-10T00:57:17.638Z,19.91
2022-08-10T00:59:58.488Z,19.87
2022-08-10T01:02:47.760Z,19.78
2022-08-10T01:05:53.821Z,19.79
2022-08-10T01:09:57.396Z,19.80
2022-08-10T01:13:34.007Z,19.71
2022-08-10T01:16:35.093Z,19.62
2022-08-10T01:19:47.685Z,19.68
2022-08-10T01:23:00.452Z,19.75
2022-08-10T01:26:32.211Z,19.77
2022-08-10T01:29:44.534Z,19.60
2022-08-10T01:33:13.463Z,19.51
2022-08-10T01:36:16.899Z,19.43
2022-08-10T01:39:06.723Z,19.46
2022-08-10T01:41:58.825Z,19.42
2022-08-10T01:44:53.848Z,19.31
2022-08-10T01:48:02.106Z,19.29
2022-08-10T01:51:00.086Z,19.20
2022-08-10T01:54:00.729Z,19.13
2022-08-10T01:56:53.117Z,19.15
2022-08-10T01:59:43.515Z,19.18
2022-08-10T02:02:48.869Z,19.11
2022-08-10T02:05:40.655Z,19.15
2022-08-10T02:08:30.536Z,19.18
2022-08-10T02:11:20.139Z,19.13
2022-08-10T02:14:09.258Z,19.19
2022-08-10T02:16:58.106Z,19.24
2022-08-10T02:19:48.140Z,19.30
2022-08-10T02:22:39.362Z,19.22
2022-08-10T02:25:42.452Z,19.26
2022-08-10T02:28:34.218Z,19.26
2022-08-10T02:31:25.088Z,19.16
2022-08-10T02:34:16.859Z,19.10
2022-08-10T02:37:10.820Z,19.08
2022-08-10T02:40:00.004Z,19.02
2022-08-10T02:45:22.917Z,18.99
2022-08-10T02:46:11.035Z,19.06
2022-08-10T02:49:03.637Z,19.05
2022-08-10T02:52:07.710Z,18.87
2022-08-10T02:55:17.050Z,18.82
2022-08-10T02:58:20.208Z,18.62
2022-08-10T03:01:14.656Z,18.47
2022-08-10T03:04:08.048Z,18.40
2022-08-10T03:07:05.298Z,18.41
2022-08-10T03:09:54.398Z,18.29
2022-08-10T03:12:44.214Z,18.06
2022-08-10T03:15:34.782Z,18.12
2022-08-10T03:18:24.646Z,18.01
2022-08-10T03:21:14.661Z,18.01
2022-08-10T03:24:30.188Z,17.90
2022-08-10T03:27:14.624Z,17.91
2022-08-10T03:30:31.841Z,17.88
2022-08-10T03:33:13.991Z,17.95
2022-08-10T03:36:40.366Z,17.84
2022-08-10T03:39:10.542Z,17.89
2022-08-10T03:42:03.085Z,17.87
2022-08-10T03:44:52.842Z,17.82
2022-08-10T03:47:42.845Z,17.80
2022-08-10T03:50:51.580Z,17.83
2022-08-10T03:54:04.975Z,17.70
2022-08-10T03:56:48.565Z,17.68
2022-08-10T03:59:36.946Z,17.59
2022-08-10T04:02:46.824Z,17.54
2022-08-10T04:05:38.188Z,17.38
2022-08-10T04:08:26.762Z,17.27
2022-08-10T04:11:14.526Z,17.02
2022-08-10T04:14:02.838Z,17.12
2022-08-10T04:16:50.624Z,17.14
2022-08-10T04:19:46.052Z,17.05
2022-08-10T04:22:35.123Z,17.05
2022-08-10T04:25:25.262Z,17.05
2022-08-10T04:28:13.371Z,16.94
2022-08-10T04:31:04.437Z,17.02
2022-08-10T04:33:54.165Z,17.03
2022-08-10T04:36:43.779Z,17.00
2022-08-10T04:39:31.648Z,16.98
2022-08-10T04:42:19.544Z,17.04
2022-08-10T04:45:11.798Z,17.07
2022-08-10T04:48:02.914Z,17.24
2022-08-10T04:50:51.801Z,17.24
2022-08-10T04:54:04.248Z,17.27
2022-08-10T04:56:47.705Z,17.20
2022-08-10T04:59:35.475Z,17.18
2022-08-10T05:02:30.169Z,17.18
2022-08-10T05:05:20.071Z,17.23
2022-08-10T05:08:07.863Z,17.34
2022-08-10T05:10:55.656Z,17.50
2022-08-10T05:13:43.452Z,17.79
2022-08-10T05:16:32.344Z,18.00
2022-08-10T05:19:25.085Z,18.19
2022-08-10T05:22:28.309Z,18.56
2022-08-10T05:25:19.960Z,18.80
2022-08-10T05:28:07.779Z,18.96
2022-08-10T05:30:55.583Z,19.32
2022-08-10T05:33:43.416Z,19.52
2022-08-10T05:36:33.896Z,19.58
2022-08-10T05:39:30.415Z,19.92
2022-08-10T05:42:21.619Z,20.19
2022-08-10T05:45:22.034Z,20.54
2022-08-10T05:48:55.005Z,20.66
2022-08-10T05:51:19.643Z,20.85
2022-08-10T05:54:14.884Z,21.30
2022-08-10T05:57:02.586Z,21.48
2022-08-10T06:00:34.603Z,21.87
2022-08-10T06:03:14.936Z,22.19
2022-08-10T06:06:08.604Z,22.44
2022-08-10T06:08:59.036Z,22.64
2022-08-10T06:12:28.024Z,23.07
2022-08-10T06:15:05.679Z,22.97
2022-08-10T06:18:01.945Z,23.19
2022-08-10T06:20:51.574Z,23.17
2022-08-10T06:23:40.023Z,23.42
2022-08-10T06:26:27.812Z,23.42
2022-08-10T06:29:19.388Z,23.66
2022-08-10T06:32:14.142Z,23.81
2022-08-10T06:35:04.414Z,23.68
2022-08-10T06:37:55.895Z,23.75
2022-08-10T06:40:46.255Z,24.03
2022-08-10T06:43:35.441Z,24.07
2022-08-10T06:46:25.354Z,24.17
2022-08-10T06:49:18.419Z,24.37
2022-08-10T06:52:18.168Z,24.19
2022-08-10T06:55:11.291Z,24.20
2022-08-10T06:58:01.114Z,24.28
2022-08-10T07:00:52.085Z,24.40
2022-08-10T07:03:54.148Z,24.33
2022-08-10T07:06:46.443Z,24.35
2022-08-10T07:09:40.092Z,24.28
2022-08-10T07:12:29.654Z,24.48
2022-08-10T07:15:18.651Z,24.65
2022-08-10T07:18:08.247Z,24.74
2022-08-10T07:20:57.601Z,24.79
2022-08-10T07:23:58.339Z,24.83
2022-08-10T07:26:50.829Z,24.86
2022-08-10T07:29:53.942Z,25.03
2022-08-10T07:32:44.901Z,25.06
2022-08-10T07:35:43.004Z,25.35
2022-08-10T07:38:33.156Z,25.20
2022-08-10T07:41:24.206Z,25.38
2022-08-10T07:44:13.141Z,25.58
2022-08-10T07:47:04.157Z,25.22
2022-08-10T07:49:55.762Z,25.58
2022-08-10T07:52:45.919Z,25.75
2022-08-10T07:56:05.738Z,25.62
2022-08-10T07:58:52.507Z,26.20
2022-08-10T08:01:50.719Z,26.30
2022-08-10T08:04:39.821Z,26.21
2022-08-10T08:07:29.357Z,26.47
2022-08-10T08:10:18.875Z,26.60
2022-08-10T08:13:07.040Z,26.70
2022-08-10T08:16:20.730Z,27.30
2022-08-10T08:19:26.682Z,27.70
2022-08-10T08:24:06.311Z,28.29
2022-08-10T08:25:26.616Z,28.96
2022-08-10T08:28:15.691Z,28.96
2022-08-10T08:31:05.140Z,28.59
2022-08-10T08:33:54.460Z,28.98
2022-08-10T08:36:45.880Z,29.21
2022-08-10T08:39:34.138Z,29.80
2022-08-10T08:42:57.619Z,29.82
2022-08-10T08:46:19.591Z,30.08
2022-08-10T08:50:07.472Z,31.34
2022-08-10T08:52:57.271Z,30.93
2022-08-10T08:56:04.063Z,31.72
2022-08-10T08:59:20.884Z,33.20
2022-08-10T09:03:32.314Z,33.61
2022-08-10T09:06:51.697Z,34.92
2022-08-10T09:10:04.959Z,34.78
2022-08-10T09:13:42.857Z,35.56
2022-08-10T09:17:11.283Z,35.31
2022-08-10T09:20:22.780Z,34.94
2022-08-10T09:24:04.628Z,35.68
2022-08-10T09:26:46.079Z,36.17
2022-08-10T09:29:44.166Z,36.17
2022-08-10T09:36:16.275Z,36.16
2022-08-10T09:36:22.794Z,36.25
2022-08-10T09:40:55.915Z,37.22
2022-08-10T09:43:24.884Z,36.95
2022-08-10T09:46:43.398Z,36.13
2022-08-10T09:49:56.249Z,35.41
2022-08-10T09:53:11.312Z,36.12
2022-08-10T09:56:28.876Z,35.75
2022-08-10T10:00:00.609Z,34.68
2022-08-10T10:03:19.697Z,34.51
2022-08-10T10:06:38.743Z,36.33
2022-08-10T10:09:39.825Z,36.85
2022-08-10T10:12:51.311Z,37.45
2022-08-10T10:16:27.828Z,38.32
2022-08-10T10:19:40.376Z,38.72
2022-08-10T10:22:53.254Z,37.32
2022-08-10T10:26:13.006Z,36.21
2022-08-10T10:29:57.612Z,36.74
2022-08-10T10:33:25.687Z,36.74
2022-08-10T10:36:21.662Z,36.60
2022-08-10T10:39:24.113Z,37.55
2022-08-10T10:42:56.434Z,36.03
2022-08-10T10:46:28.163Z,33.74
2022-08-10T10:49:45.205Z,32.71
2022-08-10T10:53:19.185Z,31.23
2022-08-10T10:56:43.645Z,30.57
2022-08-10T10:59:55.986Z,29.64
2022-08-10T11:03:24.106Z,29.23
2022-08-10T11:06:57.299Z,28.95
2022-08-10T11:10:08.983Z,28.77
2022-08-10T11:14:25.621Z,29.20
2022-08-10T11:17:27.475Z,28.84
2022-08-10T11:20:33.201Z,28.59
2022-08-10T11:23:34.888Z,28.55
2022-08-10T11:26:44.467Z,28.49
2022-08-10T11:29:59.583Z,28.69
2022-08-10T11:33:14.756Z,28.68
2022-08-10T11:37:02.847Z,28.49
2022-08-10T11:40:07.357Z,28.43
2022-08-10T11:43:19.278Z,28.38
2022-08-10T11:46:31.027Z,28.56
2022-08-10T11:49:33.515Z,28.67
2022-08-10T11:52:50.409Z,28.74
2022-08-10T11:55:38.263Z,28.74
2022-08-10T11:58:51.440Z,28.79
2022-08-10T12:01:39.717Z,28.71
2022-08-10T12:04:29.613Z,28.34
2022-08-10T12:10:02.460Z,28.69
2022-08-10T12:10:30.655Z,28.84
2022-08-10T12:13:35.491Z,28.80
2022-08-10T12:16:29.679Z,28.90
2022-08-10T12:19:59.533Z,28.77
2022-08-10T12:23:02.177Z,28.74
2022-08-10T12:25:58.749Z,28.78
2022-08-10T12:28:56.894Z,28.81
2022-08-10T12:32:11.203Z,29.00
2022-08-10T12:35:34.464Z,28.81
2022-08-10T12:38:57.170Z,28.59
2022-08-10T12:42:01.857Z,28.59
2022-08-10T12:45:06.509Z,28.55
2022-08-10T12:48:24.614Z,28.56
2022-08-10T12:51:30.445Z,28.74
2022-08-10T12:54:31.824Z,28.78
2022-08-10T12:57:28.657Z,28.74
2022-08-10T13:00:17.761Z,28.62
2022-08-10T13:03:08.057Z,28.59
2022-08-10T13:06:03.884Z,28.82
2022-08-10T13:09:08.702Z,28.72
2022-08-10T13:12:39.289Z,28.88
2022-08-10T13:15:49.796Z,28.88
2022-08-10T13:18:40.792Z,28.92
2022-08-10T13:21:36.753Z,28.77
2022-08-10T13:24:33.815Z,28.86
2022-08-10T13:28:00.970Z,29.02
2022-08-10T13:30:49.787Z,28.94
2022-08-10T13:34:39.869Z,29.07
2022-08-10T13:37:02.745Z,28.92
2022-08-10T13:39:59.659Z,29.09
2022-08-10T13:42:51.600Z,29.11
2022-08-10T13:45:49.345Z,29.02
2022-08-10T13:48:40.453Z,29.09
2022-08-10T13:51:56.359Z,29.12
2022-08-10T13:54:42.820Z,28.99
2022-08-10T13:57:35.037Z,29.05
2022-08-10T14:00:38.652Z,29.05
2022-08-10T14:03:31.029Z,29.08
2022-08-10T14:06:21.134Z,28.95
2022-08-10T14:09:12.514Z,28.97
2022-08-10T14:12:01.779Z,29.09
2022-08-10T14:14:52.718Z,28.96
2022-08-10T14:17:44.927Z,29.02
2022-08-10T14:20:36.196Z,28.99
2022-08-10T14:23:24.192Z,28.92
2022-08-10T14:26:17.855Z,28.98
2022-08-10T14:29:18.846Z,29.08
2022-08-10T14:32:15.996Z,29.13
2022-08-10T14:36:20.246Z,29.05
2022-08-10T14:38:22.304Z,29.15
2022-08-10T14:42:01.294Z,29.17
2022-08-10T14:44:53.459Z,29.15
2022-08-10T14:47:42.464Z,29.12
2022-08-10T14:50:55.799Z,29.21
2022-08-10T14:53:51.877Z,29.08
2022-08-10T14:56:44.266Z,29.17
2022-08-10T15:00:25.095Z,29.18
2022-08-10T15:02:52.873Z,29.18
2022-08-10T15:05:45.448Z,29.21
2022-08-10T15:08:36.970Z,29.20
2022-08-10T15:12:12.974Z,29.25
2022-08-10T15:14:43.051Z,29.27
2022-08-10T15:17:39.554Z,29.35
2022-08-10T15:20:29.710Z,29.27
2022-08-10T15:23:30.047Z,29.13
2022-08-10T15:26:22.013Z,29.30
2022-08-10T15:29:25.056Z,29.38
2022-08-10T15:32:32.583Z,29.29
2022-08-10T15:35:43.668Z,29.23
2022-08-10T15:38:36.693Z,29.16
2022-08-10T15:41:59.383Z,29.17
2022-08-10T15:44:53.357Z,29.18
2022-08-10T15:47:46.325Z,29.21
2022-08-10T15:50:42.950Z,29.15
2022-08-10T15:53:49.347Z,29.23
2022-08-10T15:56:49.044Z,29.23
2022-08-10T16:00:09.513Z,29.17
2022-08-10T16:03:03.732Z,29.10
2022-08-10T16:06:02.589Z,29.17
2022-08-10T16:10:22.306Z,29.03
2022-08-10T16:12:32.488Z,29.13
2022-08-10T16:15:24.007Z,29.17
2022-08-10T16:18:14.620Z,29.21
2022-08-10T16:21:13.232Z,29.23
2022-08-10T16:24:14.913Z,29.36
2022-08-10T16:27:07.538Z,29.29
2022-08-10T16:30:01.872Z,29.23
2022-08-10T16:32:50.322Z,29.11
2022-08-10T16:35:41.249Z,29.03
2022-08-10T16:38:40.427Z,29.10
2022-08-10T16:42:02.744Z,29.13
2022-08-10T16:44:44.522Z,29.09
2022-08-10T16:47:37.223Z,29.15
2022-08-10T16:50:38.394Z,29.12
2022-08-10T16:53:28.263Z,29.09
2022-08-10T16:56:17.343Z,29.07
2022-08-10T16:59:06.804Z,29.06
2022-08-10T17:01:55.994Z,29.10
2022-08-10T17:04:46.689Z,29.02
2022-08-10T17:07:36.703Z,29.08
2022-08-10T17:10:24.925Z,29.06
2022-08-10T17:13:20.748Z,28.99
2022-08-10T17:16:10.801Z,29.03
2022-08-10T17:18:58.948Z,29.02
2022-08-10T17:22:00.174Z,29.03
2022-08-10T17:25:15.619Z,28.96
2022-08-10T17:28:09.680Z,28.94
2022-08-10T17:31:24.126Z,28.93
2022-08-10T17:34:32.410Z,28.87
2022-08-10T17:37:24.775Z,28.80
2022-08-10T17:40:21.818Z,28.85
2022-08-10T17:43:58.373Z,28.77
2022-08-10T17:46:38.561Z,28.71
2022-08-10T17:49:26.715Z,28.64
2022-08-10T17:52:21.702Z,28.67
2022-08-10T17:55:11.474Z,28.71
2022-08-10T17:58:12.210Z,28.60
2022-08-10T18:01:38.645Z,28.59
2022-08-10T18:04:19.576Z,28.52
2022-08-10T18:07:09.078Z,28.39
2022-08-10T18:09:58.404Z,28.35
2022-08-10T18:12:55.447Z,28.33
2022-08-10T18:15:44.758Z,28.28
2022-08-10T18:18:33.526Z,28.16
2022-08-10T18:21:27.078Z,28.01
2022-08-10T18:24:21.207Z,27.87
2022-08-10T18:27:09.848Z,27.70
2022-08-10T18:30:04.974Z,27.69
2022-08-10T18:32:56.749Z,27.42
2022-08-10T18:35:46.253Z,27.39
2022-08-10T18:38:37.507Z,27.31
2022-08-10T18:42:04.626Z,27.34
2022-08-10T18:45:12.195Z,27.06
2022-08-10T18:48:18.610Z,27.07
2022-08-10T18:51:07.934Z,26.95
2022-08-10T18:54:08.309Z,26.80
2022-08-10T18:57:41.669Z,26.63
2022-08-10T19:00:50.279Z,26.54
2022-08-10T19:03:54.339Z,26.42
2022-08-10T19:07:21.539Z,26.16
2022-08-10T19:11:10.148Z,25.98
2022-08-10T19:14:16.661Z,25.85
2022-08-10T19:17:20.321Z,25.70
2022-08-10T19:20:32.874Z,25.59
2022-08-10T19:23:56.472Z,25.48
2022-08-10T19:26:55.112Z,25.30
2022-08-10T19:30:11.588Z,25.28
2022-08-10T19:33:50.549Z,25.16
2022-08-10T19:36:52.607Z,24.97
2022-08-10T19:39:57.172Z,24.67
2022-08-10T19:44:00.092Z,24.77
2022-08-10T19:47:01.242Z,24.54
2022-08-10T19:50:04.617Z,24.60
2022-08-10T19:53:29.835Z,24.54
2022-08-10T19:57:11.720Z,24.47
2022-08-10T20:00:19.668Z,24.37
2022-08-10T20:03:15.636Z,24.33
2022-08-10T20:06:29.997Z,24.27
2022-08-10T20:09:38.753Z,24.15
2022-08-10T20:12:54.261Z,24.14
2022-08-10T20:15:57.489Z,24.13
2022-08-10T20:19:13.373Z,24.12
2022-08-10T20:22:08.813Z,23.98
2022-08-10T20:25:11.478Z,23.96
2022-08-10T20:28:13.324Z,23.93
2022-08-10T20:31:23.115Z,23.75
2022-08-10T20:34:25.982Z,23.69
2022-08-10T20:38:01.955Z,23.77
2022-08-10T20:40:49.648Z,23.72
2022-08-10T20:43:48.274Z,23.73
2022-08-10T20:46:48.342Z,23.57
2022-08-10T20:49:46.300Z,23.48
2022-08-10T20:52:36.794Z,23.49
2022-08-10T20:55:52.654Z,23.34
2022-08-10T20:59:14.614Z,23.39
2022-08-10T21:02:47.843Z,23.31
2022-08-10T21:06:42.632Z,23.25
2022-08-10T21:09:55.676Z,23.21
2022-08-10T21:13:13.287Z,23.16
2022-08-10T21:16:20.503Z,23.14
2022-08-10T21:19:36.884Z,23.09
2022-08-10T21:22:29.390Z,22.93
2022-08-10T21:25:30.016Z,22.95
2022-08-10T21:29:01.374Z,22.91
2022-08-10T21:32:12.480Z,22.74
2022-08-10T21:35:36.263Z,22.73
2022-08-10T21:38:55.116Z,22.63
2022-08-10T21:42:58.346Z,22.56
2022-08-10T21:46:29.978Z,22.57
2022-08-10T21:49:57.363Z,22.43
2022-08-10T21:53:44.023Z,22.37
2022-08-10T21:57:17.863Z,22.25
2022-08-10T22:00:32.139Z,22.14
2022-08-10T22:03:40.143Z,22.09
2022-08-10T22:06:52.509Z,22.00
2022-08-10T22:10:03.973Z,21.86
2022-08-10T22:13:13.252Z,21.95
2022-08-10T22:16:25.468Z,21.97
2022-08-10T22:19:34.034Z,21.86
2022-08-10T22:23:01.006Z,21.94
2022-08-10T22:27:00.591Z,21.90
2022-08-10T22:30:13.109Z,21.78
2022-08-10T22:33:47.977Z,21.80
2022-08-10T22:37:06.355Z,21.81
2022-08-10T22:40:51.427Z,21.69
2022-08-10T22:43:59.432Z,21.67
2022-08-10T22:47:08.391Z,21.74
2022-08-10T22:49:57.162Z,21.63
2022-08-10T22:53:03.769Z,21.60
2022-08-10T22:56:15.419Z,21.53
2022-08-10T22:59:07.796Z,21.49
2022-08-10T23:02:09.206Z,21.48
2022-08-10T23:05:09.355Z,21.37
2022-08-10T23:08:12.505Z,21.22
2022-08-10T23:11:30.947Z,21.17
2022-08-10T23:14:20.870Z,21.06
2022-08-10T23:18:00.556Z,20.91
2022-08-10T23:20:48.456Z,20.91
2022-08-10T23:23:40.062Z,20.88
2022-08-10T23:26:31.093Z,20.83
2022-08-10T23:29:23.237Z,20.83
2022-08-10T23:32:11.531Z,20.81
2022-08-10T23:36:04.568Z,20.86
2022-08-10T23:38:27.249Z,20.84
2022-08-10T23:41:16.080Z,20.77
2022-08-10T23:44:04.832Z,20.80
2022-08-10T23:46:53.665Z,20.79
2022-08-10T23:49:44.650Z,20.80
2022-08-10T23:52:34.378Z,20.80
2022-08-10T23:55:27.306Z,20.76
2022-08-10T23:58:31.596Z,20.71
